createdAt,value
2022-11-22T00:00:11.681Z,17.95
2022-11-22T00:02:40.726Z,19.73
2022-11-22T00:05:10.273Z,21.70
2022-11-22T00:07:40.035Z,21.10
2022-11-22T00:10:12.602Z,21.85
2022-11-22T00:12:42.693Z,19.80
2022-11-22T00:15:13.761Z,22.48
2022-11-22T00:17:43.054Z,23.17
2022-11-22T00:20:14.696Z,24.23
2022-11-22T00:22:44.987Z,19.85
2022-11-22T00:25:15.499Z,19.05
2022-11-22T00:27:44.882Z,19.90
2022-11-22T00:30:14.053Z,22.52
2022-11-22T00:32:43.193Z,20.83
2022-11-22T00:35:13.679Z,21.20
2022-11-22T00:37:42.866Z,20.75
2022-11-22T00:40:12.585Z,22.08
2022-11-22T00:42:41.622Z,20.98
2022-11-22T00:45:11.353Z,20.50
2022-11-22T00:47:40.455Z,20.30
2022-11-22T00:54:19.252Z,19.75
2022-11-22T00:56:48.396Z,19.33
2022-11-22T00:59:17.472Z,19.70
2022-11-22T01:01:46.663Z,20.35
2022-11-22T01:04:15.738Z,20.20
2022-11-22T01:06:44.792Z,20.10
2022-11-22T01:09:21.881Z,19.60
2022-11-22T01:11:52.178Z,19.60
2022-11-22T01:14:21.534Z,20.35
2022-11-22T01:16:50.693Z,20.77
2022-11-22T01:19:19.783Z,17.33
2022-11-22T01:21:49.345Z,15.82
2022-11-22T01:24:18.514Z,15.63
2022-11-22T01:26:47.817Z,17.23
2022-11-22T01:29:16.926Z,15.50
2022-11-22T01:31:46.059Z,15.30
2022-11-22T01:34:15.313Z,14.80
2022-11-22T01:36:44.441Z,14.75
2022-11-22T01:39:13.614Z,15.52
2022-11-22T01:41:42.746Z,14.55
2022-11-22T01:44:23.524Z,14.00
2022-11-22T01:47:19.732Z,13.73
2022-11-22T01:50:08.121Z,14.63
2022-11-22T01:55:14.360Z,13.32
2022-11-22T01:57:45.531Z,12.60
2022-11-22T02:00:18.869Z,11.88
2022-11-22T02:03:07.745Z,11.15
2022-11-22T02:05:37.923Z,10.25
2022-11-22T02:08:32.320Z,11.00
2022-11-22T02:11:04.822Z,10.68
2022-11-22T02:13:40.284Z,11.45
2022-11-22T02:16:10.895Z,10.35
2022-11-22T02:18:40.517Z,9.70
2022-11-22T02:21:11.196Z,10.88
2022-11-22T02:24:25.219Z,9.77
2022-11-22T02:26:54.580Z,10.43
2022-11-22T02:29:24.093Z,9.95
2022-11-22T02:31:53.224Z,10.88
2022-11-22T02:34:22.322Z,9.95
2022-11-22T02:36:58.713Z,9.80
2022-11-22T02:39:33.203Z,10.52
2022-11-22T02:42:03.735Z,9.68
2022-11-22T02:44:34.249Z,10.77
2022-11-22T02:47:03.626Z,12.75
2022-11-22T02:49:33.209Z,11.55
2022-11-22T02:52:02.602Z,11.23
2022-11-22T02:54:31.850Z,11.20
2022-11-22T02:57:00.982Z,9.98
2022-11-22T02:59:30.502Z,10.18
2022-11-22T03:02:03.174Z,9.55
2022-11-22T03:04:32.914Z,9.05
2022-11-22T03:07:03.226Z,10.30
2022-11-22T03:09:33.377Z,12.27
2022-11-22T03:12:02.840Z,10.48
2022-11-22T03:14:32.003Z,9.57
2022-11-22T03:17:01.162Z,9.23
2022-11-22T03:19:30.826Z,9.30
2022-11-22T03:22:00.126Z,9.07
2022-11-22T03:24:29.265Z,9.40
2022-11-22T03:26:58.352Z,9.40
2022-11-22T03:29:27.641Z,10.07
2022-11-22T03:31:57.830Z,8.85
2022-11-22T03:34:26.939Z,8.40
2022-11-22T03:36:56.195Z,8.65
2022-11-22T03:39:25.395Z,8.02
2022-11-22T03:41:56.960Z,8.43
2022-11-22T03:44:26.068Z,8.82
2022-11-22T03:46:55.138Z,9.05
2022-11-22T03:49:24.371Z,9.25
2022-11-22T03:51:53.506Z,8.82
2022-11-22T03:54:22.537Z,6.70
2022-11-22T03:56:51.700Z,8.07
2022-11-22T03:59:20.957Z,8.00
2022-11-22T04:01:50.936Z,9.00
2022-11-22T04:04:20.185Z,8.77
2022-11-22T04:06:49.278Z,8.23
2022-11-22T04:09:18.477Z,7.95
2022-11-22T04:11:47.612Z,8.35
2022-11-22T04:14:34.886Z,7.72
2022-11-22T04:17:03.957Z,8.50
2022-11-22T04:19:33.614Z,8.93
2022-11-22T04:22:02.712Z,7.50
2022-11-22T04:24:49.953Z,7.95
2022-11-22T04:27:19.124Z,7.37
2022-11-22T04:29:48.241Z,7.78
2022-11-22T04:32:35.586Z,7.38
2022-11-22T04:35:04.738Z,7.87
2022-11-22T04:37:33.876Z,7.93
2022-11-22T04:40:03.037Z,7.43
2022-11-22T04:42:50.384Z,6.85
2022-11-22T04:45:19.685Z,6.45
2022-11-22T04:48:01.095Z,6.43
2022-11-22T04:50:51.003Z,7.03
2022-11-22T04:53:20.926Z,6.35
2022-11-22T04:55:50.164Z,6.75
2022-11-22T04:58:19.897Z,6.85
2022-11-22T05:00:49.988Z,7.00
2022-11-22T05:03:19.275Z,6.32
2022-11-22T05:05:48.894Z,6.05
2022-11-22T05:08:18.190Z,5.80
2022-11-22T05:10:58.904Z,7.05
2022-11-22T05:13:33.747Z,6.90
2022-11-22T05:16:05.699Z,7.20
2022-11-22T05:18:37.122Z,6.82
2022-11-22T05:21:09.420Z,6.45
2022-11-22T05:23:57.054Z,5.95
2022-11-22T05:26:32.935Z,6.75
2022-11-22T05:29:10.706Z,5.88
2022-11-22T05:31:41.634Z,5.57
2022-11-22T05:34:10.880Z,5.18
2022-11-22T05:36:40.090Z,5.90
2022-11-22T05:39:09.212Z,4.68
2022-11-22T05:41:38.316Z,5.68
2022-11-22T05:44:08.139Z,5.35
2022-11-22T05:46:37.469Z,5.25
2022-11-22T05:49:06.613Z,6.43
2022-11-22T05:51:35.752Z,5.38
2022-11-22T05:54:05.233Z,5.10
2022-11-22T05:56:34.383Z,6.18
2022-11-22T05:59:03.580Z,5.95
2022-11-22T06:01:32.957Z,4.97
2022-11-22T06:04:02.223Z,4.82
2022-11-22T06:06:31.454Z,5.43
2022-11-22T06:09:01.747Z,4.03
2022-11-22T06:11:31.281Z,5.15
2022-11-22T06:14:06.059Z,4.93
2022-11-22T06:16:35.276Z,5.60
2022-11-22T06:19:04.522Z,4.80
2022-11-22T06:21:34.012Z,4.10
2022-11-22T06:24:03.593Z,5.00
2022-11-22T06:26:37.736Z,4.60
2022-11-22T06:29:08.937Z,4.70
2022-11-22T06:31:38.160Z,5.85
2022-11-22T06:34:07.666Z,5.00
2022-11-22T06:36:40.047Z,6.18
2022-11-22T06:39:09.299Z,5.03
2022-11-22T06:41:39.651Z,4.32
2022-11-22T06:44:11.210Z,6.53
2022-11-22T06:46:40.353Z,5.35
2022-11-22T06:49:09.509Z,5.25
2022-11-22T06:51:38.689Z,4.38
2022-11-22T06:54:07.884Z,4.93
2022-11-22T06:56:42.935Z,5.60
2022-11-22T06:59:12.544Z,4.50
2022-11-22T07:01:41.764Z,4.00
2022-11-22T07:04:11.704Z,4.78
2022-11-22T07:06:41.344Z,4.72
2022-11-22T07:09:12.952Z,4.07
2022-11-22T07:11:42.958Z,4.28
2022-11-22T07:14:12.298Z,4.97
2022-11-22T07:16:41.525Z,5.60
2022-11-22T07:19:12.601Z,5.30
2022-11-22T07:21:41.737Z,6.47
2022-11-22T07:24:11.292Z,4.95
2022-11-22T07:26:40.476Z,4.47
2022-11-22T07:29:09.774Z,4.72
2022-11-22T07:31:38.898Z,3.92
2022-11-22T07:34:08.144Z,4.68
2022-11-22T07:36:37.313Z,5.95
2022-11-22T07:39:06.499Z,6.32
2022-11-22T07:41:35.833Z,4.45
2022-11-22T07:44:05.022Z,4.30
2022-11-22T07:46:34.419Z,6.32
2022-11-22T07:49:04.423Z,4.88
2022-11-22T07:51:33.724Z,4.97
2022-11-22T07:54:02.948Z,5.63
2022-11-22T07:56:32.227Z,4.45
2022-11-22T07:59:01.469Z,5.22
2022-11-22T08:01:30.770Z,4.40
2022-11-22T08:03:59.968Z,5.45
2022-11-22T08:06:29.200Z,4.82
2022-11-22T08:09:02.002Z,3.85
2022-11-22T08:11:31.647Z,4.70
2022-11-22T08:14:00.844Z,5.00
2022-11-22T08:16:30.009Z,4.20
2022-11-22T08:18:59.718Z,4.90
2022-11-22T08:21:29.496Z,4.57
2022-11-22T08:24:01.473Z,4.70
2022-11-22T08:26:30.792Z,4.97
2022-11-22T08:28:59.828Z,5.35
2022-11-22T08:31:29.534Z,5.20
2022-11-22T08:33:58.647Z,5.13
2022-11-22T08:36:31.230Z,4.38
2022-11-22T08:39:00.848Z,4.65
2022-11-22T08:41:29.913Z,5.20
2022-11-22T08:43:58.994Z,5.72
2022-11-22T08:46:28.065Z,5.97
2022-11-22T08:48:57.254Z,5.32
2022-11-22T08:51:26.301Z,5.22
2022-11-22T08:53:55.387Z,5.55
2022-11-22T08:56:24.529Z,7.72
2022-11-22T08:58:53.667Z,6.00
2022-11-22T09:01:24.257Z,5.05
2022-11-22T09:03:53.527Z,6.43
2022-11-22T09:12:01.056Z,5.38
2022-11-22T09:14:30.356Z,5.45
2022-11-22T09:16:59.465Z,5.53
2022-11-22T09:19:29.272Z,5.38
2022-11-22T09:21:58.894Z,5.78
2022-11-22T09:24:27.952Z,4.40
2022-11-22T09:26:57.085Z,4.97
2022-11-22T09:29:27.507Z,5.63
2022-11-22T09:31:57.118Z,5.70
2022-11-22T09:34:26.161Z,5.63
2022-11-22T09:36:55.211Z,7.93
2022-11-22T09:39:24.321Z,5.35
2022-11-22T09:42:02.029Z,5.82
2022-11-22T09:45:35.857Z,5.57
2022-11-22T09:48:51.968Z,7.03
2022-11-22T09:51:35.788Z,6.63
2022-11-22T09:54:16.189Z,6.03
2022-11-22T09:56:47.677Z,5.78
2022-11-22T09:59:31.632Z,6.47
2022-11-22T10:02:19.359Z,6.75
2022-11-22T10:05:01.528Z,6.57
2022-11-22T10:07:44.151Z,6.03
2022-11-22T10:10:30.947Z,6.78
2022-11-22T10:13:27.421Z,7.55
2022-11-22T10:16:37.880Z,7.70
2022-11-22T10:19:55.727Z,7.13
2022-11-22T10:22:26.365Z,13.10
2022-11-22T10:24:55.521Z,7.65
2022-11-22T10:27:24.597Z,8.10
2022-11-22T10:30:16.580Z,8.90
2022-11-22T10:33:00.931Z,8.70
2022-11-22T10:36:06.185Z,9.23
2022-11-22T10:38:53.618Z,10.77
2022-11-22T10:41:31.322Z,11.27
2022-11-22T10:44:21.513Z,12.40
2022-11-22T10:47:10.897Z,12.23
2022-11-22T10:50:12.004Z,9.40
2022-11-22T10:53:15.679Z,8.50
2022-11-22T10:56:40.624Z,8.80
2022-11-22T10:59:29.132Z,8.90
2022-11-22T11:02:22.304Z,8.00
2022-11-22T11:04:54.380Z,7.93
2022-11-22T11:07:26.368Z,7.50
2022-11-22T11:10:29.279Z,8.93
2022-11-22T11:13:27.314Z,9.48
2022-11-22T11:16:00.835Z,9.38
2022-11-22T11:18:43.405Z,8.95
2022-11-22T11:21:17.156Z,9.32
2022-11-22T11:23:46.291Z,10.18
2022-11-22T11:26:30.277Z,10.63
2022-11-22T11:29:20.436Z,11.50
2022-11-22T11:32:09.121Z,13.30
2022-11-22T11:34:41.503Z,12.43
2022-11-22T11:37:27.974Z,12.93
2022-11-22T11:39:57.867Z,13.30
2022-11-22T11:42:36.613Z,13.80
2022-11-22T11:45:32.298Z,13.75
2022-11-22T11:48:01.545Z,13.75
2022-11-22T11:50:33.812Z,16.10
2022-11-22T11:53:16.840Z,17.05
2022-11-22T11:55:45.952Z,17.98
2022-11-22T11:58:25.673Z,16.42
2022-11-22T12:00:55.067Z,17.73
2022-11-22T12:03:26.738Z,18.30
2022-11-22T12:06:15.517Z,19.52
2022-11-22T12:08:44.755Z,19.92
2022-11-22T12:11:38.951Z,19.50
2022-11-22T12:14:20.497Z,21.75
2022-11-22T12:16:55.509Z,21.23
2022-11-22T12:20:19.600Z,18.92
2022-11-22T12:23:21.254Z,18.40
2022-11-22T12:25:56.148Z,17.60
2022-11-22T12:28:29.201Z,16.55
2022-11-22T12:31:40.866Z,17.73
2022-11-22T12:34:45.106Z,18.17
2022-11-22T12:38:14.206Z,17.85
2022-11-22T12:40:57.167Z,17.42
2022-11-22T12:44:02.962Z,18.85
2022-11-22T12:47:08.660Z,17.60
2022-11-22T12:49:55.848Z,17.33
2022-11-22T12:52:29.466Z,16.50
2022-11-22T12:55:22.194Z,16.75
2022-11-22T12:58:25.406Z,16.10
2022-11-22T13:01:39.624Z,15.35
2022-11-22T13:04:13.423Z,17.35
2022-11-22T13:07:33.745Z,17.27
2022-11-22T13:10:40.461Z,16.05
2022-11-22T13:13:31.769Z,15.95
2022-11-22T13:16:12.447Z,15.32
2022-11-22T13:18:52.478Z,15.32
2022-11-22T13:21:47.411Z,15.07
2022-11-22T13:25:07.597Z,14.48
2022-11-22T13:27:49.510Z,13.65
2022-11-22T13:30:28.662Z,15.70
2022-11-22T13:33:01.826Z,13.90
2022-11-22T13:35:38.894Z,14.32
2022-11-22T13:38:19.416Z,13.02
2022-11-22T13:40:52.430Z,14.68
2022-11-22T13:43:22.671Z,14.10
2022-11-22T13:45:55.208Z,13.50
2022-11-22T13:48:42.473Z,13.35
2022-11-22T13:51:15.875Z,12.57
2022-11-22T13:53:47.902Z,13.75
2022-11-22T13:56:22.843Z,12.32
2022-11-22T13:59:26.667Z,12.85
2022-11-22T14:02:03.719Z,12.13
2022-11-22T14:04:41.769Z,12.48
2022-11-22T14:07:13.980Z,12.30
2022-11-22T14:09:52.393Z,12.40
2022-11-22T14:13:01.902Z,12.50
2022-11-22T14:16:18.706Z,12.00
2022-11-22T14:19:11.826Z,13.95
2022-11-22T14:22:20.169Z,12.20
2022-11-22T14:25:53.268Z,12.43
2022-11-22T14:28:31.203Z,11.70
2022-11-22T14:31:00.954Z,11.73
2022-11-22T14:33:30.711Z,11.63
2022-11-22T14:36:08.902Z,11.70
2022-11-22T14:38:51.537Z,11.82
2022-11-22T14:41:29.851Z,10.95
2022-11-22T14:47:14.457Z,10.88
2022-11-22T14:49:50.266Z,11.93
2022-11-22T14:52:29.945Z,11.93
2022-11-22T14:55:10.608Z,13.80
2022-11-22T14:57:40.562Z,12.75
2022-11-22T15:00:25.375Z,12.77
2022-11-22T15:03:34.750Z,12.77
2022-11-22T15:09:13.833Z,12.77
2022-11-22T15:09:53.307Z,12.88
2022-11-22T15:12:34.672Z,13.05
2022-11-22T15:58:00.239Z,11.15
2022-11-22T16:00:31.345Z,12.07
2022-11-22T16:03:23.967Z,12.45
2022-11-22T16:06:04.439Z,11.57
2022-11-22T16:08:51.101Z,11.82
2022-11-22T16:11:37.645Z,12.65
2022-11-22T16:14:41.191Z,12.35
2022-11-22T16:17:39.685Z,12.32
2022-11-22T16:20:24.587Z,11.20
2022-11-22T16:23:16.027Z,12.50
2022-11-22T16:25:53.984Z,11.52
2022-11-22T16:28:37.311Z,11.32
2022-11-22T16:31:28.832Z,11.75
2022-11-22T16:33:59.614Z,11.80
2022-11-22T16:36:31.551Z,11.70
2022-11-22T16:39:00.778Z,11.82
2022-11-22T16:41:31.470Z,11.73
2022-11-22T16:44:19.468Z,10.55
2022-11-22T16:46:48.789Z,11.88
2022-11-22T16:49:21.440Z,12.40
2022-11-22T16:51:52.979Z,11.98
2022-11-22T16:54:24.780Z,12.75
2022-11-22T16:56:53.908Z,14.15
2022-11-22T16:59:23.075Z,14.43
2022-11-22T17:01:52.253Z,15.40
2022-11-22T17:04:27.962Z,13.77
2022-11-22T17:06:57.339Z,15.25
2022-11-22T17:09:26.950Z,14.35
2022-11-22T17:11:56.849Z,14.32
2022-11-22T17:14:26.032Z,16.27
2022-11-22T17:16:55.156Z,14.35
2022-11-22T17:19:51.583Z,15.02
2022-11-22T17:22:20.108Z,15.23
2022-11-22T17:24:49.251Z,15.38
2022-11-22T17:27:18.352Z,15.85
2022-11-22T17:29:53.617Z,14.95
2022-11-22T17:32:22.740Z,15.73
2022-11-22T17:34:51.930Z,15.82
2022-11-22T17:37:21.040Z,16.05
2022-11-22T17:39:53.430Z,15.35
2022-11-22T17:42:25.681Z,16.27
2022-11-22T17:45:01.048Z,16.25
2022-11-22T17:47:30.179Z,16.08
2022-11-22T17:49:59.403Z,15.45
2022-11-22T17:52:28.662Z,15.38
2022-11-22T17:55:02.051Z,15.15
2022-11-22T17:57:34.420Z,15.05
2022-11-22T18:00:07.848Z,14.65
2022-11-22T18:02:37.213Z,14.80
2022-11-22T18:05:09.338Z,14.93
2022-11-22T18:07:42.703Z,15.15
2022-11-22T18:10:15.496Z,14.27
2022-11-22T18:12:58.587Z,14.13
2022-11-22T18:15:33.846Z,13.93
2022-11-22T18:18:03.011Z,14.43
2022-11-22T18:20:35.078Z,14.00
2022-11-22T18:23:04.319Z,14.18
2022-11-22T18:25:41.341Z,12.27
2022-11-22T18:28:10.933Z,13.02
2022-11-22T18:30:40.087Z,12.45
2022-11-22T18:33:11.145Z,13.75
2022-11-22T18:35:40.811Z,13.23
2022-11-22T18:38:09.952Z,13.35
2022-11-22T18:40:45.543Z,12.80
2022-11-22T18:43:17.002Z,13.38
2022-11-22T18:45:46.080Z,12.68
2022-11-22T18:48:16.056Z,12.35
2022-11-22T18:50:45.669Z,12.77
2022-11-22T18:53:14.746Z,12.50
2022-11-22T18:55:43.851Z,13.90
2022-11-22T18:58:12.915Z,13.10
2022-11-22T19:00:45.222Z,13.80
2022-11-22T19:03:15.236Z,13.27
2022-11-22T19:05:44.343Z,14.68
2022-11-22T19:08:13.433Z,13.25
2022-11-22T19:10:42.586Z,12.98
2022-11-22T19:13:12.850Z,13.65
2022-11-22T19:15:42.023Z,14.52
2022-11-22T19:18:11.163Z,13.00
2022-11-22T19:20:55.227Z,12.45
2022-11-22T19:23:24.812Z,11.88
2022-11-22T19:25:54.002Z,12.20
2022-11-22T19:28:31.814Z,10.13
2022-11-22T19:31:09.615Z,11.60
2022-11-22T19:33:40.490Z,10.65
2022-11-22T19:36:16.753Z,9.43
2022-11-22T19:38:47.183Z,10.20
2022-11-22T19:41:23.308Z,10.60
2022-11-22T19:43:53.936Z,10.38
2022-11-22T19:46:23.130Z,10.30
2022-11-22T19:48:58.108Z,10.60
2022-11-22T19:51:30.669Z,10.55
2022-11-22T19:54:05.535Z,11.38
2022-11-22T19:56:38.777Z,10.60
2022-11-22T19:59:13.907Z,10.20
2022-11-22T20:01:43.294Z,12.05
2022-11-22T20:04:15.353Z,11.10
2022-11-22T20:06:49.720Z,12.48
2022-11-22T20:09:19.492Z,11.68
2022-11-22T20:11:48.703Z,11.05
2022-11-22T20:14:18.009Z,12.25
2022-11-22T20:16:47.451Z,11.02
2022-11-22T20:19:16.593Z,10.90
2022-11-22T20:21:46.995Z,11.13
2022-11-22T20:24:16.466Z,11.23
2022-11-22T20:26:45.785Z,11.85
2022-11-22T20:29:16.063Z,9.93
2022-11-22T20:31:45.325Z,11.38
2022-11-22T20:34:16.029Z,11.40
2022-11-22T20:36:45.300Z,10.93
2022-11-22T20:39:14.508Z,10.60
2022-11-22T20:41:43.890Z,10.10
2022-11-22T20:44:16.193Z,11.85
2022-11-22T20:46:46.328Z,11.32
2022-11-22T20:49:15.585Z,11.10
2022-11-22T20:51:44.821Z,11.07
2022-11-22T20:54:14.279Z,10.82
2022-11-22T20:56:43.484Z,12.15
2022-11-22T20:59:13.042Z,10.85
2022-11-22T21:01:44.656Z,12.13
2022-11-22T21:04:19.424Z,12.85
2022-11-22T21:06:48.764Z,11.07
2022-11-22T21:09:17.995Z,11.98
2022-11-22T21:11:48.998Z,11.25
2022-11-22T21:14:18.186Z,11.13
2022-11-22T21:16:47.824Z,11.82
2022-11-22T21:19:17.881Z,11.02
2022-11-22T21:21:47.120Z,12.05
2022-11-22T21:24:16.336Z,12.57
2022-11-22T21:26:45.416Z,12.32
2022-11-22T21:29:16.635Z,12.25
2022-11-22T21:31:46.046Z,11.55
2022-11-22T21:34:15.754Z,12.43
2022-11-22T21:36:44.894Z,10.73
2022-11-22T21:39:13.971Z,11.18
2022-11-22T21:41:43.077Z,12.05
2022-11-22T21:44:12.409Z,9.10
2022-11-22T21:46:41.925Z,10.05
2022-11-22T21:49:11.022Z,10.13
2022-11-22T21:51:40.126Z,10.45
2022-11-22T21:54:09.477Z,9.90
2022-11-22T21:56:38.682Z,10.15
2022-11-22T21:59:07.915Z,9.73
2022-11-22T22:01:37.032Z,10.27
2022-11-22T22:04:06.872Z,11.43
2022-11-22T22:06:36.104Z,10.73
2022-11-22T22:09:05.367Z,11.27
2022-11-22T22:11:34.429Z,12.13
2022-11-22T22:14:03.516Z,13.68
2022-11-22T22:16:32.728Z,12.85
2022-11-22T22:19:05.452Z,13.55
2022-11-22T22:21:37.567Z,18.05
2022-11-22T22:24:07.256Z,17.45
2022-11-22T22:26:36.425Z,18.30
2022-11-22T22:29:05.926Z,18.40
2022-11-22T22:31:35.237Z,17.08
2022-11-22T22:34:04.682Z,14.63
2022-11-22T22:36:33.889Z,10.88
2022-11-22T22:39:03.177Z,10.68
2022-11-22T22:41:32.413Z,10.02
2022-11-22T22:44:01.658Z,9.30
2022-11-22T22:46:30.819Z,9.68
2022-11-22T22:49:01.132Z,10.07
2022-11-22T22:51:33.544Z,10.05
2022-11-22T22:54:03.638Z,9.68
2022-11-22T22:56:33.594Z,10.45
2022-11-22T22:59:18.506Z,10.23
2022-11-22T23:01:47.672Z,10.18
2022-11-22T23:04:17.155Z,10.68
2022-11-22T23:06:46.390Z,11.73
2022-11-22T23:09:16.774Z,11.45
2022-11-22T23:12:05.972Z,11.23
2022-11-22T23:14:35.297Z,11.25
2022-11-22T23:17:04.542Z,10.90
2022-11-22T23:19:34.086Z,10.50
2022-11-22T23:22:05.226Z,9.70
2022-11-22T23:24:35.506Z,10.35
2022-11-22T23:27:04.603Z,11.05
2022-11-22T23:29:34.779Z,8.95
2022-11-22T23:32:04.782Z,9.02
2022-11-22T23:34:34.829Z,9.43
2022-11-22T23:37:03.896Z,9.45
2022-11-22T23:39:33.139Z,9.23
2022-11-22T23:42:02.482Z,9.93
2022-11-22T23:44:31.631Z,9.98
2022-11-22T23:47:00.817Z,9.38
2022-11-22T23:49:30.101Z,10.38
2022-11-22T23:51:59.470Z,11.68
2022-11-22T23:54:28.664Z,11.57
2022-11-22T23:56:57.738Z,11.70
2022-11-22T23:59:26.802Z,9.70
